createdAt,value
2023-04-09T00:00:09.280Z,10.77
2023-04-09T00:02:39.200Z,11.35
2023-04-09T00:05:09.009Z,11.50
2023-04-09T00:07:38.276Z,11.88
2023-04-09T00:10:08.484Z,12.30
2023-04-09T00:12:38.803Z,11.05
2023-04-09T00:15:13.030Z,10.25
2023-04-09T00:17:47.278Z,10.40
2023-04-09T00:20:16.634Z,10.60
2023-04-09T00:22:45.803Z,9.60
2023-04-09T00:25:15.217Z,10.65
2023-04-09T00:27:44.390Z,10.43
2023-04-09T00:30:14.012Z,9.82
2023-04-09T00:32:43.486Z,9.82
2023-04-09T00:35:13.054Z,9.95
2023-04-09T00:37:42.326Z,10.10
2023-04-09T00:40:12.241Z,10.52
2023-04-09T00:42:42.757Z,10.90
2023-04-09T00:45:12.402Z,9.80
2023-04-09T00:47:44.085Z,9.85
2023-04-09T00:50:13.652Z,11.10
2023-04-09T00:52:42.997Z,10.27
2023-04-09T00:55:13.872Z,10.40
2023-04-09T00:57:43.123Z,10.02
2023-04-09T01:00:14.155Z,9.57
2023-04-09T01:02:44.851Z,11.10
2023-04-09T01:05:16.225Z,9.57
2023-04-09T01:08:23.844Z,10.27
2023-04-09T01:11:10.772Z,11.77
2023-04-09T01:13:58.690Z,11.25
2023-04-09T01:16:30.493Z,11.27
2023-04-09T01:19:11.121Z,11.35
2023-04-09T01:21:43.187Z,10.90
2023-04-09T01:24:58.362Z,11.90
2023-04-09T01:27:46.356Z,9.93
2023-04-09T01:30:19.305Z,9.90
2023-04-09T01:32:49.211Z,10.35
2023-04-09T01:38:13.990Z,11.45
2023-04-09T01:40:44.759Z,10.88
2023-04-09T01:43:24.064Z,9.80
2023-04-09T01:46:03.780Z,10.73
2023-04-09T01:48:35.577Z,10.93
2023-04-09T01:51:05.578Z,9.90
2023-04-09T01:53:41.239Z,10.27
2023-04-09T01:56:14.247Z,10.38
2023-04-09T01:58:43.566Z,11.93
2023-04-09T02:01:23.853Z,10.80
2023-04-09T02:04:29.494Z,11.15
2023-04-09T02:07:39.358Z,12.02
2023-04-09T02:10:12.983Z,10.40
2023-04-09T02:12:56.146Z,10.57
2023-04-09T02:16:25.209Z,10.02
2023-04-09T02:18:58.121Z,10.52
2023-04-09T02:21:28.466Z,10.65
2023-04-09T02:23:58.172Z,11.35
2023-04-09T02:26:27.455Z,10.90
2023-04-09T02:28:56.780Z,10.60
2023-04-09T02:31:26.125Z,10.73
2023-04-09T02:33:55.590Z,9.57
2023-04-09T02:36:24.887Z,10.20
2023-04-09T02:38:54.505Z,9.88
2023-04-09T02:41:23.672Z,10.45
2023-04-09T02:43:52.860Z,11.68
2023-04-09T02:46:22.135Z,12.15
2023-04-09T02:48:51.545Z,11.15
2023-04-09T02:51:22.214Z,10.77
2023-04-09T02:53:51.481Z,11.07
2023-04-09T02:56:20.714Z,11.43
2023-04-09T02:58:52.798Z,11.82
2023-04-09T03:01:22.696Z,11.73
2023-04-09T03:03:52.215Z,12.65
2023-04-09T03:06:21.564Z,11.10
2023-04-09T03:08:51.112Z,11.27
2023-04-09T03:11:20.460Z,11.88
2023-04-09T03:13:49.695Z,12.07
2023-04-09T03:16:19.105Z,11.77
2023-04-09T03:18:48.558Z,11.63
2023-04-09T03:21:17.789Z,11.55
2023-04-09T03:23:47.031Z,11.70
2023-04-09T03:26:16.540Z,11.70
2023-04-09T03:28:45.729Z,13.32
2023-04-09T03:31:15.080Z,12.75
2023-04-09T03:33:44.350Z,12.23
2023-04-09T03:36:13.561Z,11.98
2023-04-09T03:38:43.489Z,12.07
2023-04-09T03:41:12.740Z,12.13
2023-04-09T03:43:42.108Z,12.68
2023-04-09T03:46:19.199Z,11.43
2023-04-09T03:48:48.439Z,11.82
2023-04-09T03:51:18.586Z,12.40
2023-04-09T03:53:47.899Z,11.85
2023-04-09T03:56:17.249Z,11.05
2023-04-09T03:58:46.950Z,11.65
2023-04-09T04:01:16.541Z,12.88
2023-04-09T04:03:45.821Z,11.93
2023-04-09T04:06:15.271Z,12.52
2023-04-09T04:08:45.637Z,12.25
2023-04-09T04:11:15.868Z,12.10
2023-04-09T04:13:45.103Z,11.95
2023-04-09T04:16:14.292Z,12.35
2023-04-09T04:18:43.540Z,12.90
2023-04-09T04:21:19.336Z,13.10
2023-04-09T04:23:48.622Z,15.63
2023-04-09T04:26:17.818Z,13.45
2023-04-09T04:28:47.219Z,12.77
2023-04-09T04:31:16.650Z,12.02
2023-04-09T04:33:48.440Z,13.05
2023-04-09T04:36:17.646Z,13.88
2023-04-09T04:38:47.355Z,12.75
2023-04-09T04:41:17.036Z,12.43
2023-04-09T04:43:48.088Z,13.32
2023-04-09T04:46:17.563Z,13.27
2023-04-09T04:48:46.802Z,13.30
2023-04-09T04:51:16.174Z,15.43
2023-04-09T04:53:48.227Z,12.32
2023-04-09T04:56:17.954Z,13.30
2023-04-09T04:58:48.308Z,12.50
2023-04-09T05:01:17.553Z,12.35
2023-04-09T05:03:47.026Z,13.77
2023-04-09T05:06:16.217Z,12.90
2023-04-09T05:08:45.419Z,13.32
2023-04-09T05:11:16.184Z,12.60
2023-04-09T05:13:45.407Z,12.75
2023-04-09T05:16:23.145Z,12.82
2023-04-09T05:18:52.721Z,12.32
2023-04-09T05:21:22.104Z,11.85
2023-04-09T05:23:51.504Z,11.63
2023-04-09T05:26:20.674Z,12.77
2023-04-09T05:28:50.288Z,13.48
2023-04-09T05:31:20.045Z,12.65
2023-04-09T05:33:49.255Z,12.38
2023-04-09T05:36:20.525Z,12.57
2023-04-09T05:38:51.066Z,11.98
2023-04-09T05:41:20.479Z,12.13
2023-04-09T05:43:49.846Z,12.27
2023-04-09T05:46:19.154Z,12.68
2023-04-09T05:48:48.412Z,13.10
2023-04-09T05:51:17.597Z,11.90
2023-04-09T05:53:46.868Z,12.10
2023-04-09T05:56:18.886Z,11.90
2023-04-09T05:58:48.659Z,13.10
2023-04-09T06:01:17.817Z,11.73
2023-04-09T06:03:47.453Z,11.55
2023-04-09T06:06:16.982Z,12.23
2023-04-09T06:08:46.560Z,12.35
2023-04-09T06:11:15.925Z,11.38
2023-04-09T06:13:45.122Z,12.85
2023-04-09T06:16:14.284Z,12.20
2023-04-09T06:18:43.618Z,12.40
2023-04-09T06:21:14.446Z,12.77
2023-04-09T06:23:44.093Z,12.52
2023-04-09T06:26:13.305Z,12.88
2023-04-09T06:28:43.408Z,12.65
2023-04-09T06:31:13.207Z,12.30
2023-04-09T06:33:42.543Z,12.77
2023-04-09T06:36:12.240Z,12.18
2023-04-09T06:38:41.480Z,13.90
2023-04-09T06:41:12.752Z,11.73
2023-04-09T06:43:42.580Z,13.07
2023-04-09T06:46:11.859Z,13.32
2023-04-09T06:48:43.445Z,13.32
2023-04-09T06:51:13.458Z,12.85
2023-04-09T06:53:42.858Z,11.93
2023-04-09T06:56:12.310Z,12.40
2023-04-09T06:58:41.826Z,14.02
2023-04-09T07:01:11.602Z,13.65
2023-04-09T07:03:41.815Z,13.32
2023-04-09T07:06:11.235Z,14.63
2023-04-09T07:08:40.497Z,13.77
2023-04-09T07:11:09.927Z,13.15
2023-04-09T07:13:39.104Z,13.70
2023-04-09T07:16:08.461Z,13.35
2023-04-09T07:18:37.733Z,13.93
2023-04-09T07:21:06.941Z,14.02
2023-04-09T07:23:39.391Z,13.82
2023-04-09T07:26:08.695Z,13.18
2023-04-09T07:28:37.965Z,13.35
2023-04-09T07:31:07.373Z,13.73
2023-04-09T07:33:36.573Z,16.27
2023-04-09T07:36:06.611Z,15.13
2023-04-09T07:38:35.919Z,14.05
2023-04-09T07:41:05.197Z,12.85
2023-04-09T07:43:34.466Z,13.75
2023-04-09T07:46:03.812Z,14.00
2023-04-09T07:48:33.072Z,14.02
2023-04-09T07:51:02.297Z,12.73
2023-04-09T07:53:31.827Z,12.63
2023-04-09T07:56:01.025Z,13.10
2023-04-09T07:58:30.258Z,13.35
2023-04-09T08:00:59.539Z,13.55
2023-04-09T08:03:29.059Z,13.77
2023-04-09T08:05:58.645Z,14.02
2023-04-09T08:08:27.873Z,13.60
2023-04-09T08:10:57.253Z,14.40
2023-04-09T08:13:27.087Z,13.70
2023-04-09T08:15:56.358Z,13.88
2023-04-09T08:18:25.647Z,13.75
2023-04-09T08:20:54.840Z,14.27
2023-04-09T08:23:24.101Z,13.63
2023-04-09T08:25:53.309Z,14.45
2023-04-09T08:28:22.749Z,13.65
2023-04-09T08:30:52.045Z,13.18
2023-04-09T08:33:21.271Z,14.20
2023-04-09T08:35:50.535Z,13.52
2023-04-09T08:38:21.486Z,13.32
2023-04-09T08:40:50.891Z,12.73
2023-04-09T08:43:33.689Z,13.88
2023-04-09T08:46:17.720Z,13.40
2023-04-09T08:48:49.427Z,13.15
2023-04-09T08:51:24.715Z,13.43
2023-04-09T08:54:05.303Z,13.23
2023-04-09T08:56:34.865Z,13.35
2023-04-09T08:59:04.181Z,12.95
2023-04-09T09:01:34.609Z,13.65
2023-04-09T09:04:10.056Z,13.02
2023-04-09T09:06:42.635Z,12.25
2023-04-09T09:09:19.998Z,12.55
2023-04-09T09:11:54.047Z,13.38
2023-04-09T09:14:23.365Z,13.40
2023-04-09T09:16:59.073Z,13.38
2023-04-09T09:19:28.382Z,13.00
2023-04-09T09:22:06.126Z,13.57
2023-04-09T09:24:35.964Z,13.23
2023-04-09T09:27:05.345Z,12.35
2023-04-09T09:29:45.764Z,13.60
2023-04-09T09:32:16.160Z,13.80
2023-04-09T09:35:07.554Z,14.20
2023-04-09T09:37:36.982Z,14.05
2023-04-09T09:40:06.907Z,13.82
2023-04-09T09:42:36.627Z,13.88
2023-04-09T09:45:22.746Z,13.52
2023-04-09T09:47:53.449Z,13.95
2023-04-09T09:50:26.786Z,13.85
2023-04-09T09:53:05.086Z,14.43
2023-04-09T09:55:39.646Z,13.63
2023-04-09T09:58:24.594Z,13.65
2023-04-09T10:00:58.153Z,13.95
2023-04-09T10:03:33.189Z,14.10
2023-04-09T10:06:05.612Z,14.30
2023-04-09T10:08:36.974Z,13.65
2023-04-09T10:11:08.844Z,14.40
2023-04-09T10:13:47.868Z,14.40
2023-04-09T10:16:19.994Z,14.07
2023-04-09T10:18:49.580Z,13.68
2023-04-09T10:21:57.543Z,14.60
2023-04-09T10:24:27.267Z,14.65
2023-04-09T10:27:15.744Z,15.27
2023-04-09T10:29:49.028Z,15.35
2023-04-09T10:32:27.280Z,15.20
2023-04-09T10:35:01.739Z,14.82
2023-04-09T10:37:32.766Z,14.45
2023-04-09T10:40:04.782Z,14.60
2023-04-09T10:42:43.994Z,15.13
2023-04-09T10:45:17.785Z,14.05
2023-04-09T10:47:54.397Z,15.00
2023-04-09T10:50:28.867Z,14.98
2023-04-09T10:53:01.310Z,15.15
2023-04-09T10:55:40.136Z,15.25
2023-04-09T10:58:13.559Z,15.38
2023-04-09T11:00:45.899Z,14.77
2023-04-09T11:03:34.073Z,16.30
2023-04-09T11:06:10.146Z,16.17
2023-04-09T11:08:40.586Z,16.35
2023-04-09T11:11:09.790Z,15.93
2023-04-09T11:13:39.026Z,18.20
2023-04-09T11:16:08.420Z,16.88
2023-04-09T11:18:38.265Z,17.98
2023-04-09T11:21:08.057Z,17.00
2023-04-09T11:23:37.577Z,18.17
2023-04-09T11:26:07.115Z,19.05
2023-04-09T11:28:37.290Z,18.55
2023-04-09T11:31:08.126Z,18.75
2023-04-09T11:33:37.560Z,19.20
2023-04-09T11:36:09.975Z,17.92
2023-04-09T11:38:40.143Z,18.38
2023-04-09T11:41:13.823Z,18.10
2023-04-09T11:43:43.238Z,19.13
2023-04-09T11:46:12.977Z,18.98
2023-04-09T11:48:42.578Z,19.25
2023-04-09T11:51:11.952Z,19.63
2023-04-09T11:53:42.059Z,19.20
2023-04-09T11:56:12.930Z,19.05
2023-04-09T11:58:48.689Z,19.08
2023-04-09T12:01:18.183Z,20.52
2023-04-09T12:03:57.115Z,20.35
2023-04-09T12:06:27.774Z,20.08
2023-04-09T12:08:59.771Z,19.17
2023-04-09T12:11:33.548Z,20.58
2023-04-09T12:14:10.105Z,19.98
2023-04-09T12:16:42.390Z,19.48
2023-04-09T12:19:13.971Z,20.83
2023-04-09T12:21:59.282Z,21.50
2023-04-09T12:24:29.804Z,24.20
2023-04-09T12:26:59.160Z,29.85
2023-04-09T12:29:29.953Z,25.90
2023-04-09T12:31:59.825Z,23.98
2023-04-09T12:34:29.382Z,21.65
2023-04-09T12:36:59.156Z,21.50
2023-04-09T12:39:28.560Z,20.52
2023-04-09T12:41:58.750Z,21.63
2023-04-09T12:44:28.657Z,19.73
2023-04-09T12:46:57.909Z,21.15
2023-04-09T12:49:27.066Z,21.38
2023-04-09T12:51:56.325Z,23.00
2023-04-09T12:54:25.526Z,23.15
2023-04-09T12:56:54.698Z,21.20
2023-04-09T12:59:23.983Z,23.70
2023-04-09T13:01:53.339Z,25.27
2023-04-09T13:04:22.815Z,26.13
2023-04-09T13:06:52.033Z,25.70
2023-04-09T13:09:21.269Z,24.70
2023-04-09T13:11:50.462Z,24.75
2023-04-09T13:14:19.664Z,26.00
2023-04-09T13:16:49.141Z,24.63
2023-04-09T13:19:18.322Z,23.02
2023-04-09T13:21:48.193Z,23.00
2023-04-09T13:24:17.603Z,23.85
2023-04-09T13:26:46.883Z,21.17
2023-04-09T13:29:16.546Z,22.95
2023-04-09T13:31:45.794Z,24.45
2023-04-09T13:34:14.936Z,25.58
2023-04-09T13:36:44.514Z,24.65
2023-04-09T13:39:13.684Z,26.42
2023-04-09T13:41:43.076Z,26.92
2023-04-09T13:44:15.661Z,27.25
2023-04-09T13:46:45.120Z,31.10
2023-04-09T13:49:14.564Z,29.05
2023-04-09T13:51:43.726Z,28.33
2023-04-09T13:54:12.968Z,29.38
2023-04-09T13:56:42.353Z,28.38
2023-04-09T13:59:11.887Z,28.98
2023-04-09T14:01:41.893Z,28.15
2023-04-09T14:04:12.515Z,26.27
2023-04-09T14:06:43.286Z,28.42
2023-04-09T14:09:13.333Z,26.83
2023-04-09T14:11:42.559Z,28.08
2023-04-09T14:14:12.033Z,27.63
2023-04-09T14:16:41.380Z,27.25
2023-04-09T14:19:11.326Z,35.20
2023-04-09T14:21:42.044Z,29.08
2023-04-09T14:24:11.261Z,27.23
2023-04-09T14:26:40.452Z,28.15
2023-04-09T14:29:09.683Z,27.20
2023-04-09T14:31:38.970Z,27.15
2023-04-09T14:34:08.178Z,28.52
2023-04-09T14:36:37.859Z,27.98
2023-04-09T14:39:07.157Z,29.63
2023-04-09T14:41:37.556Z,28.60
2023-04-09T14:44:06.970Z,26.75
2023-04-09T14:46:37.593Z,27.88
2023-04-09T14:49:07.344Z,27.65
2023-04-09T14:51:36.774Z,26.38
2023-04-09T14:54:06.132Z,27.45
2023-04-09T14:56:35.436Z,26.15
2023-04-09T14:59:07.260Z,26.77
2023-04-09T15:01:36.746Z,27.85
2023-04-09T15:04:06.126Z,27.55
2023-04-09T15:06:35.508Z,27.58
2023-04-09T15:09:04.769Z,24.95
2023-04-09T15:11:34.153Z,26.42
2023-04-09T15:14:04.134Z,24.70
2023-04-09T15:16:38.101Z,26.30
2023-04-09T15:19:08.391Z,25.30
2023-04-09T15:21:37.781Z,24.80
2023-04-09T15:24:07.153Z,25.40
2023-04-09T15:26:39.372Z,25.95
2023-04-09T15:29:11.219Z,25.70
2023-04-09T15:31:41.621Z,25.48
2023-04-09T15:34:11.251Z,26.65
2023-04-09T15:36:40.713Z,26.20
2023-04-09T15:39:10.036Z,26.48
2023-04-09T15:41:39.559Z,25.38
2023-04-09T15:44:09.683Z,25.23
2023-04-09T15:46:40.418Z,25.00
2023-04-09T15:49:09.715Z,23.90
2023-04-09T15:51:39.024Z,25.77
2023-04-09T15:54:08.317Z,23.40
2023-04-09T15:56:40.647Z,24.35
2023-04-09T15:59:10.620Z,25.42
2023-04-09T16:01:39.984Z,23.48
2023-04-09T16:04:10.311Z,24.35
2023-04-09T16:06:40.541Z,24.33
2023-04-09T16:09:09.824Z,22.98
2023-04-09T16:11:39.181Z,26.77
2023-04-09T16:14:10.240Z,23.52
2023-04-09T16:16:39.732Z,22.98
2023-04-09T16:19:09.024Z,24.65
2023-04-09T16:21:38.479Z,27.55
2023-04-09T16:24:08.257Z,28.25
2023-04-09T16:26:37.479Z,29.98
2023-04-09T16:29:06.889Z,30.40
2023-04-09T16:31:37.699Z,31.27
2023-04-09T16:34:07.335Z,30.02
2023-04-09T16:36:42.191Z,31.50
2023-04-09T16:39:11.942Z,31.67
2023-04-09T16:41:41.362Z,31.40
2023-04-09T16:44:10.634Z,29.42
2023-04-09T16:46:39.895Z,29.73
2023-04-09T16:49:09.174Z,31.50
2023-04-09T16:51:39.160Z,30.33
2023-04-09T16:54:08.571Z,30.77
2023-04-09T16:56:37.789Z,30.35
2023-04-09T16:59:07.039Z,30.33
2023-04-09T17:01:36.465Z,30.77
2023-04-09T17:04:06.047Z,29.55
2023-04-09T17:06:35.293Z,28.50
2023-04-09T17:09:06.472Z,27.92
2023-04-09T17:11:35.897Z,27.27
2023-04-09T17:14:05.515Z,27.27
2023-04-09T17:16:34.967Z,27.08
2023-04-09T17:19:06.547Z,27.90
2023-04-09T17:21:35.804Z,27.48
2023-04-09T17:24:05.171Z,28.55
2023-04-09T17:26:35.164Z,27.60
2023-04-09T17:29:07.716Z,26.88
2023-04-09T17:31:36.968Z,28.45
2023-04-09T17:34:08.495Z,27.83
2023-04-09T17:36:38.031Z,28.23
2023-04-09T17:39:07.426Z,27.80
2023-04-09T17:41:37.458Z,27.98
2023-04-09T17:44:11.379Z,27.70
2023-04-09T17:46:47.100Z,27.60
2023-04-09T17:49:16.601Z,27.98
2023-04-09T17:51:51.600Z,27.88
2023-04-09T17:54:20.930Z,28.55
2023-04-09T17:56:50.479Z,29.92
2023-04-09T17:59:19.682Z,27.65
2023-04-09T18:01:51.892Z,26.73
2023-04-09T18:04:21.685Z,27.75
2023-04-09T18:06:51.530Z,25.38
2023-04-09T18:09:21.056Z,26.42
2023-04-09T18:11:54.381Z,26.33
2023-04-09T18:14:32.235Z,25.60
2023-04-09T18:17:02.143Z,27.40
2023-04-09T18:19:42.131Z,27.40
2023-04-09T18:22:14.961Z,27.08
2023-04-09T18:24:44.332Z,28.20
2023-04-09T18:27:13.531Z,27.95
2023-04-09T18:29:44.868Z,26.55
2023-04-09T18:32:14.110Z,26.90
2023-04-09T18:34:43.361Z,28.02
2023-04-09T18:37:13.258Z,26.75
2023-04-09T18:39:42.964Z,27.38
2023-04-09T18:42:12.419Z,27.75
2023-04-09T18:44:42.410Z,27.60
2023-04-09T18:47:15.814Z,27.63
2023-04-09T18:49:44.985Z,26.67
2023-04-09T18:52:14.288Z,26.85
2023-04-09T18:54:43.891Z,27.52
2023-04-09T18:57:13.161Z,26.88
2023-04-09T18:59:46.613Z,27.77
2023-04-09T19:02:15.976Z,28.40
2023-04-09T19:04:46.135Z,27.33
2023-04-09T19:07:20.762Z,28.40
2023-04-09T19:09:50.010Z,29.08
2023-04-09T19:12:19.305Z,28.13
2023-04-09T19:14:48.472Z,28.27
2023-04-09T19:17:18.204Z,29.05
2023-04-09T19:19:47.375Z,30.58
2023-04-09T19:22:17.202Z,29.90
2023-04-09T19:24:46.950Z,28.73
2023-04-09T19:27:16.157Z,29.90
2023-04-09T19:29:47.236Z,31.48
2023-04-09T19:32:16.443Z,31.80
2023-04-09T19:34:45.707Z,30.17
2023-04-09T19:37:16.193Z,31.55
2023-04-09T19:39:45.422Z,30.55
2023-04-09T19:42:14.670Z,30.42
2023-04-09T19:44:43.870Z,30.77
2023-04-09T19:47:13.213Z,30.75
2023-04-09T19:49:42.865Z,30.17
2023-04-09T19:52:12.138Z,30.65
2023-04-09T19:54:41.657Z,29.88
2023-04-09T19:57:10.884Z,29.27
2023-04-09T19:59:41.037Z,30.25
2023-04-09T20:02:10.470Z,30.73
2023-04-09T20:04:41.366Z,31.00
2023-04-09T20:07:10.653Z,31.75
2023-04-09T20:09:42.506Z,33.67
2023-04-09T20:12:12.268Z,32.05
2023-04-09T20:14:41.598Z,31.23
2023-04-09T20:17:11.732Z,31.38
2023-04-09T20:19:40.967Z,30.58
2023-04-09T20:22:10.300Z,30.35
2023-04-09T20:24:39.507Z,31.33
2023-04-09T20:27:08.722Z,30.88
2023-04-09T20:29:37.961Z,31.45
2023-04-09T20:32:07.577Z,32.10
2023-04-09T20:34:37.036Z,31.23
2023-04-09T20:37:07.768Z,30.92
2023-04-09T20:39:37.760Z,31.30
2023-04-09T20:42:07.144Z,30.35
2023-04-09T20:44:36.601Z,30.05
2023-04-09T20:47:05.956Z,30.58
2023-04-09T20:49:35.625Z,30.20
2023-04-09T20:52:04.894Z,30.42
2023-04-09T20:54:35.167Z,33.65
2023-04-09T20:57:06.571Z,30.42
2023-04-09T20:59:35.921Z,30.67
2023-04-09T21:02:05.335Z,31.38
2023-04-09T21:04:34.825Z,31.58
2023-04-09T21:07:04.332Z,30.77
2023-04-09T21:09:35.215Z,30.48
2023-04-09T21:12:04.701Z,31.90
2023-04-09T21:14:34.083Z,33.10
2023-04-09T21:17:03.534Z,32.35
2023-04-09T21:19:33.007Z,31.80
2023-04-09T21:22:02.635Z,32.28
2023-04-09T21:24:36.185Z,32.55
2023-04-09T21:27:07.953Z,31.75
2023-04-09T21:29:37.313Z,31.88
2023-04-09T21:32:07.034Z,31.63
2023-04-09T21:34:38.227Z,32.83
2023-04-09T21:37:08.667Z,33.67
2023-04-09T21:39:38.414Z,31.80
2023-04-09T21:42:09.723Z,32.72
2023-04-09T21:44:39.988Z,32.60
2023-04-09T21:47:09.979Z,32.55
2023-04-09T21:49:41.289Z,32.10
2023-04-09T21:52:15.470Z,31.90
2023-04-09T21:54:45.625Z,34.65
2023-04-09T21:57:15.049Z,33.45
2023-04-09T21:59:44.471Z,33.42
2023-04-09T22:02:13.905Z,34.75
2023-04-09T22:04:44.006Z,34.55
2023-04-09T22:07:13.764Z,34.03
2023-04-09T22:09:43.000Z,35.45
2023-04-09T22:12:12.194Z,35.22
2023-04-09T22:14:41.954Z,35.92
2023-04-09T22:17:11.344Z,38.20
2023-04-09T22:19:41.053Z,43.72
2023-04-09T22:22:13.141Z,38.60
2023-04-09T22:24:42.869Z,34.45
2023-04-09T22:27:12.294Z,31.90
2023-04-09T22:29:41.486Z,33.35
2023-04-09T22:32:10.934Z,33.38
2023-04-09T22:34:40.233Z,32.70
2023-04-09T22:37:10.178Z,33.53
2023-04-09T22:39:39.948Z,32.90
2023-04-09T22:42:11.362Z,32.42
2023-04-09T22:44:42.501Z,35.67
2023-04-09T22:47:11.911Z,34.80
2023-04-09T22:49:41.126Z,36.25
2023-04-09T22:52:10.618Z,36.45
2023-04-09T22:54:39.904Z,36.00
2023-04-09T22:57:09.155Z,38.42
2023-04-09T22:59:40.580Z,37.92
2023-04-09T23:02:10.581Z,38.33
2023-04-09T23:04:39.934Z,39.15
2023-04-09T23:07:10.433Z,39.00
2023-04-09T23:09:39.645Z,38.85
2023-04-09T23:12:08.879Z,38.80
2023-04-09T23:14:38.434Z,39.15
2023-04-09T23:17:07.693Z,39.58
2023-04-09T23:19:36.915Z,42.05
2023-04-09T23:22:06.742Z,40.55
2023-04-09T23:24:35.984Z,39.28
2023-04-09T23:27:05.316Z,56.03
2023-04-09T23:29:34.622Z,43.78
2023-04-09T23:32:04.178Z,42.92
2023-04-09T23:34:34.071Z,42.00
2023-04-09T23:37:03.931Z,41.53
2023-04-09T23:39:34.217Z,41.83
2023-04-09T23:42:03.429Z,41.78
2023-04-09T23:44:33.604Z,41.85
2023-04-09T23:47:03.662Z,43.28
2023-04-09T23:49:33.236Z,43.05
2023-04-09T23:52:02.464Z,43.30
2023-04-09T23:54:31.833Z,43.55
2023-04-09T23:57:01.173Z,45.08
2023-04-09T23:59:34.768Z,43.53
